sensor_id;sensor_type;location;lat;lon;timestamp;P1;durP1;ratioP1;P2;durP2;ratioP2
18387;SDS011;9320;50.256;19.026;2022-07-12T00:00:03;7.23;;;3.20;;
18387;SDS011;9320;50.256;19.026;2022-07-12T00:02:33;7.97;;;2.90;;
18387;SDS011;9320;50.256;19.026;2022-07-12T00:05:02;5.83;;;3.07;;
18387;SDS011;9320;50.256;19.026;2022-07-12T00:07:30;7.60;;;3.20;;
18387;SDS011;9320;50.256;19.026;2022-07-12T00:09:58;7.47;;;3.40;;
18387;SDS011;9320;50.256;19.026;2022-07-12T00:12:27;6.03;;;3.45;;
18387;SDS011;9320;50.256;19.026;2022-07-12T00:14:55;5.43;;;3.70;;
18387;SDS011;9320;50.256;19.026;2022-07-12T00:17:24;8.97;;;4.90;;
18387;SDS011;9320;50.256;19.026;2022-07-12T00:19:53;13.03;;;4.90;;
18387;SDS011;9320;50.256;19.026;2022-07-12T00:22:21;9.85;;;4.75;;
18387;SDS011;9320;50.256;19.026;2022-07-12T00:24:50;6.40;;;4.75;;
18387;SDS011;9320;50.256;19.026;2022-07-12T00:27:18;9.30;;;5.03;;
18387;SDS011;9320;50.256;19.026;2022-07-12T00:29:46;10.93;;;5.40;;
18387;SDS011;9320;50.256;19.026;2022-07-12T00:32:14;10.27;;;5.57;;
18387;SDS011;9320;50.256;19.026;2022-07-12T00:34:44;10.82;;;6.00;;
18387;SDS011;9320;50.256;19.026;2022-07-12T00:37:12;8.70;;;5.55;;
18387;SDS011;9320;50.256;19.026;2022-07-12T00:39:40;11.90;;;6.43;;
18387;SDS011;9320;50.256;19.026;2022-07-12T00:42:08;9.35;;;5.05;;
18387;SDS011;9320;50.256;19.026;2022-07-12T00:44:36;9.53;;;4.33;;
18387;SDS011;9320;50.256;19.026;2022-07-12T00:47:05;8.17;;;4.30;;
18387;SDS011;9320;50.256;19.026;2022-07-12T00:49:33;9.50;;;4.33;;
18387;SDS011;9320;50.256;19.026;2022-07-12T00:52:03;13.40;;;3.88;;
18387;SDS011;9320;50.256;19.026;2022-07-12T00:54:32;9.60;;;4.60;;
18387;SDS011;9320;50.256;19.026;2022-07-12T00:57:00;10.17;;;4.07;;
18387;SDS011;9320;50.256;19.026;2022-07-12T00:59:28;8.87;;;4.23;;
18387;SDS011;9320;50.256;19.026;2022-07-12T01:01:56;7.47;;;3.67;;
18387;SDS011;9320;50.256;19.026;2022-07-12T01:04:25;8.77;;;3.72;;
18387;SDS011;9320;50.256;19.026;2022-07-12T01:06:53;9.53;;;3.97;;
18387;SDS011;9320;50.256;19.026;2022-07-12T01:09:23;7.80;;;4.05;;
18387;SDS011;9320;50.256;19.026;2022-07-12T01:11:51;9.30;;;4.60;;
18387;SDS011;9320;50.256;19.026;2022-07-12T01:14:20;6.27;;;3.60;;
18387;SDS011;9320;50.256;19.026;2022-07-12T01:16:48;6.30;;;3.13;;
18387;SDS011;9320;50.256;19.026;2022-07-12T01:19:19;6.67;;;3.77;;
18387;SDS011;9320;50.256;19.026;2022-07-12T01:21:48;11.73;;;4.17;;
18387;SDS011;9320;50.256;19.026;2022-07-12T01:24:19;9.40;;;4.30;;
18387;SDS011;9320;50.256;19.026;2022-07-12T01:26:48;8.03;;;4.37;;
18387;SDS011;9320;50.256;19.026;2022-07-12T01:29:17;7.40;;;4.20;;
18387;SDS011;9320;50.256;19.026;2022-07-12T01:31:47;9.30;;;4.30;;
18387;SDS011;9320;50.256;19.026;2022-07-12T01:34:15;10.20;;;4.37;;
18387;SDS011;9320;50.256;19.026;2022-07-12T01:36:44;10.07;;;4.70;;
18387;SDS011;9320;50.256;19.026;2022-07-12T01:39:13;8.45;;;4.45;;
18387;SDS011;9320;50.256;19.026;2022-07-12T01:41:43;11.52;;;4.30;;
18387;SDS011;9320;50.256;19.026;2022-07-12T01:44:12;11.30;;;4.10;;
18387;SDS011;9320;50.256;19.026;2022-07-12T01:46:40;10.00;;;4.40;;
18387;SDS011;9320;50.256;19.026;2022-07-12T01:49:08;10.63;;;4.47;;
18387;SDS011;9320;50.256;19.026;2022-07-12T01:51:37;6.27;;;3.90;;
18387;SDS011;9320;50.256;19.026;2022-07-12T01:54:06;6.17;;;3.50;;
18387;SDS011;9320;50.256;19.026;2022-07-12T01:56:34;7.90;;;3.50;;
18387;SDS011;9320;50.256;19.026;2022-07-12T01:59:05;7.82;;;3.15;;
18387;SDS011;9320;50.256;19.026;2022-07-12T02:01:34;6.73;;;2.90;;
18387;SDS011;9320;50.256;19.026;2022-07-12T02:04:04;8.50;;;2.87;;
18387;SDS011;9320;50.256;19.026;2022-07-12T02:06:32;5.43;;;2.47;;
18387;SDS011;9320;50.256;19.026;2022-07-12T02:09:01;6.17;;;3.00;;
18387;SDS011;9320;50.256;19.026;2022-07-12T02:11:30;6.07;;;2.80;;
18387;SDS011;9320;50.256;19.026;2022-07-12T02:13:58;5.17;;;3.00;;
18387;SDS011;9320;50.256;19.026;2022-07-12T02:16:27;8.35;;;3.20;;
18387;SDS011;9320;50.256;19.026;2022-07-12T02:18:56;7.82;;;3.40;;
18387;SDS011;9320;50.256;19.026;2022-07-12T02:21:24;6.32;;;2.72;;
18387;SDS011;9320;50.256;19.026;2022-07-12T02:23:53;5.23;;;3.03;;
18387;SDS011;9320;50.256;19.026;2022-07-12T02:26:21;7.05;;;2.85;;
18387;SDS011;9320;50.256;19.026;2022-07-12T02:28:49;4.43;;;2.88;;
18387;SDS011;9320;50.256;19.026;2022-07-12T02:31:17;11.73;;;4.30;;
18387;SDS011;9320;50.256;19.026;2022-07-12T02:33:47;17.83;;;8.20;;
18387;SDS011;9320;50.256;19.026;2022-07-12T02:36:15;29.98;;;12.68;;
18387;SDS011;9320;50.256;19.026;2022-07-12T02:38:43;28.07;;;12.10;;
18387;SDS011;9320;50.256;19.026;2022-07-12T02:41:12;46.95;;;17.33;;
18387;SDS011;9320;50.256;19.026;2022-07-12T02:43:40;85.20;;;28.60;;
18387;SDS011;9320;50.256;19.026;2022-07-12T02:46:08;88.97;;;30.13;;
18387;SDS011;9320;50.256;19.026;2022-07-12T02:48:38;99.40;;;31.80;;
18387;SDS011;9320;50.256;19.026;2022-07-12T02:51:08;103.57;;;33.67;;
18387;SDS011;9320;50.256;19.026;2022-07-12T02:53:37;94.47;;;32.03;;
18387;SDS011;9320;50.256;19.026;2022-07-12T02:56:07;95.87;;;30.83;;
18387;SDS011;9320;50.256;19.026;2022-07-12T02:58:36;84.47;;;29.83;;
18387;SDS011;9320;50.256;19.026;2022-07-12T03:01:04;67.63;;;23.33;;
18387;SDS011;9320;50.256;19.026;2022-07-12T03:03:33;47.87;;;18.40;;
18387;SDS011;9320;50.256;19.026;2022-07-12T03:06:01;52.63;;;17.77;;
18387;SDS011;9320;50.256;19.026;2022-07-12T03:08:31;48.07;;;16.80;;
18387;SDS011;9320;50.256;19.026;2022-07-12T03:10:59;40.00;;;14.70;;
18387;SDS011;9320;50.256;19.026;2022-07-12T03:13:27;31.53;;;12.23;;
18387;SDS011;9320;50.256;19.026;2022-07-12T03:15:55;40.70;;;20.17;;
18387;SDS011;9320;50.256;19.026;2022-07-12T03:18:24;55.90;;;25.87;;
18387;SDS011;9320;50.256;19.026;2022-07-12T03:20:52;50.20;;;26.13;;
18387;SDS011;9320;50.256;19.026;2022-07-12T03:23:20;46.27;;;21.83;;
18387;SDS011;9320;50.256;19.026;2022-07-12T03:25:50;43.23;;;21.40;;
18387;SDS011;9320;50.256;19.026;2022-07-12T03:28:18;32.80;;;17.00;;
18387;SDS011;9320;50.256;19.026;2022-07-12T03:30:47;27.20;;;14.73;;
18387;SDS011;9320;50.256;19.026;2022-07-12T03:33:15;16.27;;;8.47;;
18387;SDS011;9320;50.256;19.026;2022-07-12T03:35:43;17.43;;;8.10;;
18387;SDS011;9320;50.256;19.026;2022-07-12T03:38:12;11.20;;;6.73;;
18387;SDS011;9320;50.256;19.026;2022-07-12T03:40:40;16.90;;;6.63;;
18387;SDS011;9320;50.256;19.026;2022-07-12T03:43:10;11.80;;;6.50;;
18387;SDS011;9320;50.256;19.026;2022-07-12T03:45:38;11.33;;;5.20;;
18387;SDS011;9320;50.256;19.026;2022-07-12T03:48:08;10.53;;;4.70;;
18387;SDS011;9320;50.256;19.026;2022-07-12T03:50:36;7.63;;;4.70;;
18387;SDS011;9320;50.256;19.026;2022-07-12T03:53:04;7.83;;;4.60;;
18387;SDS011;9320;50.256;19.026;2022-07-12T03:55:33;10.37;;;5.00;;
18387;SDS011;9320;50.256;19.026;2022-07-12T03:58:01;7.40;;;3.97;;
18387;SDS011;9320;50.256;19.026;2022-07-12T04:00:31;9.13;;;3.83;;
18387;SDS011;9320;50.256;19.026;2022-07-12T04:02:59;6.15;;;3.72;;
18387;SDS011;9320;50.256;19.026;2022-07-12T04:05:27;7.13;;;4.00;;
18387;SDS011;9320;50.256;19.026;2022-07-12T04:07:55;8.65;;;5.20;;
18387;SDS011;9320;50.256;19.026;2022-07-12T04:10:23;9.65;;;4.00;;
18387;SDS011;9320;50.256;19.026;2022-07-12T04:12:52;6.28;;;3.80;;
18387;SDS011;9320;50.256;19.026;2022-07-12T04:15:20;6.35;;;4.20;;
18387;SDS011;9320;50.256;19.026;2022-07-12T04:17:50;9.40;;;3.83;;
18387;SDS011;9320;50.256;19.026;2022-07-12T04:20:18;6.90;;;3.80;;
18387;SDS011;9320;50.256;19.026;2022-07-12T04:22:46;8.35;;;4.22;;
18387;SDS011;9320;50.256;19.026;2022-07-12T04:25:15;7.97;;;3.93;;
18387;SDS011;9320;50.256;19.026;2022-07-12T04:27:43;5.63;;;3.73;;
18387;SDS011;9320;50.256;19.026;2022-07-12T04:30:11;8.73;;;3.80;;
18387;SDS011;9320;50.256;19.026;2022-07-12T04:32:40;6.33;;;3.70;;
18387;SDS011;9320;50.256;19.026;2022-07-12T04:35:09;9.73;;;4.00;;
18387;SDS011;9320;50.256;19.026;2022-07-12T04:37:37;11.90;;;4.20;;
18387;SDS011;9320;50.256;19.026;2022-07-12T04:40:06;10.75;;;4.65;;
18387;SDS011;9320;50.256;19.026;2022-07-12T04:42:35;7.95;;;3.53;;
18387;SDS011;9320;50.256;19.026;2022-07-12T04:45:03;9.95;;;3.90;;
18387;SDS011;9320;50.256;19.026;2022-07-12T04:47:34;8.60;;;4.10;;
18387;SDS011;9320;50.256;19.026;2022-07-12T04:50:03;10.27;;;3.72;;
18387;SDS011;9320;50.256;19.026;2022-07-12T04:52:34;6.70;;;3.45;;
18387;SDS011;9320;50.256;19.026;2022-07-12T04:55:02;5.88;;;3.45;;
18387;SDS011;9320;50.256;19.026;2022-07-12T04:57:31;7.70;;;3.60;;
18387;SDS011;9320;50.256;19.026;2022-07-12T04:59:59;8.70;;;3.67;;
18387;SDS011;9320;50.256;19.026;2022-07-12T05:02:27;6.60;;;3.72;;
18387;SDS011;9320;50.256;19.026;2022-07-12T05:04:56;11.73;;;3.58;;
18387;SDS011;9320;50.256;19.026;2022-07-12T05:07:24;8.98;;;3.80;;
18387;SDS011;9320;50.256;19.026;2022-07-12T05:09:53;9.60;;;4.33;;
18387;SDS011;9320;50.256;19.026;2022-07-12T05:12:22;11.33;;;3.97;;
18387;SDS011;9320;50.256;19.026;2022-07-12T05:14:50;8.48;;;4.43;;
18387;SDS011;9320;50.256;19.026;2022-07-12T05:17:18;6.30;;;3.90;;
18387;SDS011;9320;50.256;19.026;2022-07-12T05:19:46;7.13;;;4.13;;
18387;SDS011;9320;50.256;19.026;2022-07-12T05:22:14;7.55;;;4.53;;
18387;SDS011;9320;50.256;19.026;2022-07-12T05:24:42;7.57;;;4.70;;
18387;SDS011;9320;50.256;19.026;2022-07-12T05:27:12;8.80;;;5.63;;
18387;SDS011;9320;50.256;19.026;2022-07-12T05:29:41;9.05;;;4.80;;
18387;SDS011;9320;50.256;19.026;2022-07-12T05:32:09;7.67;;;4.63;;
18387;SDS011;9320;50.256;19.026;2022-07-12T05:34:37;9.93;;;5.80;;
18387;SDS011;9320;50.256;19.026;2022-07-12T05:37:06;9.10;;;5.43;;
18387;SDS011;9320;50.256;19.026;2022-07-12T05:39:34;11.20;;;6.97;;
18387;SDS011;9320;50.256;19.026;2022-07-12T05:42:09;14.95;;;6.80;;
18387;SDS011;9320;50.256;19.026;2022-07-12T05:44:39;29.55;;;8.63;;
18387;SDS011;9320;50.256;19.026;2022-07-12T05:47:07;25.08;;;7.75;;
18387;SDS011;9320;50.256;19.026;2022-07-12T05:49:35;20.20;;;7.78;;
18387;SDS011;9320;50.256;19.026;2022-07-12T05:52:04;14.75;;;7.70;;
18387;SDS011;9320;50.256;19.026;2022-07-12T05:54:50;12.80;;;7.50;;
18387;SDS011;9320;50.256;19.026;2022-07-12T05:57:18;12.90;;;7.30;;
18387;SDS011;9320;50.256;19.026;2022-07-12T05:59:47;19.77;;;7.10;;
18387;SDS011;9320;50.256;19.026;2022-07-12T06:02:16;21.70;;;7.38;;
18387;SDS011;9320;50.256;19.026;2022-07-12T06:04:44;27.47;;;7.63;;
18387;SDS011;9320;50.256;19.026;2022-07-12T06:07:16;9.80;;;6.40;;
18387;SDS011;9320;50.256;19.026;2022-07-12T06:09:45;12.57;;;6.70;;
18387;SDS011;9320;50.256;19.026;2022-07-12T06:12:13;15.73;;;5.85;;
18387;SDS011;9320;50.256;19.026;2022-07-12T06:14:41;14.55;;;6.25;;
18387;SDS011;9320;50.256;19.026;2022-07-12T06:17:11;10.40;;;5.55;;
18387;SDS011;9320;50.256;19.026;2022-07-12T06:19:39;11.25;;;5.80;;
18387;SDS011;9320;50.256;19.026;2022-07-12T06:22:07;13.95;;;5.82;;
18387;SDS011;9320;50.256;19.026;2022-07-12T06:24:35;10.13;;;5.13;;
18387;SDS011;9320;50.256;19.026;2022-07-12T06:27:04;15.30;;;5.45;;
18387;SDS011;9320;50.256;19.026;2022-07-12T06:29:32;9.00;;;4.88;;
18387;SDS011;9320;50.256;19.026;2022-07-12T06:32:00;10.02;;;5.50;;
18387;SDS011;9320;50.256;19.026;2022-07-12T06:34:30;11.00;;;5.38;;
18387;SDS011;9320;50.256;19.026;2022-07-12T06:36:58;9.27;;;5.18;;
18387;SDS011;9320;50.256;19.026;2022-07-12T06:39:27;8.77;;;4.82;;
18387;SDS011;9320;50.256;19.026;2022-07-12T06:41:55;12.52;;;5.25;;
18387;SDS011;9320;50.256;19.026;2022-07-12T06:44:23;10.05;;;4.63;;
18387;SDS011;9320;50.256;19.026;2022-07-12T06:46:51;10.43;;;4.82;;
18387;SDS011;9320;50.256;19.026;2022-07-12T06:49:19;9.93;;;4.60;;
18387;SDS011;9320;50.256;19.026;2022-07-12T06:51:49;11.38;;;4.78;;
18387;SDS011;9320;50.256;19.026;2022-07-12T06:54:17;12.43;;;4.70;;
18387;SDS011;9320;50.256;19.026;2022-07-12T06:56:46;9.80;;;4.10;;
18387;SDS011;9320;50.256;19.026;2022-07-12T06:59:14;8.63;;;4.10;;
18387;SDS011;9320;50.256;19.026;2022-07-12T07:01:42;20.38;;;4.35;;
18387;SDS011;9320;50.256;19.026;2022-07-12T07:04:11;16.88;;;4.00;;
18387;SDS011;9320;50.256;19.026;2022-07-12T07:06:39;8.48;;;3.70;;
18387;SDS011;9320;50.256;19.026;2022-07-12T07:09:09;6.85;;;2.92;;
18387;SDS011;9320;50.256;19.026;2022-07-12T07:11:37;9.38;;;2.90;;
18387;SDS011;9320;50.256;19.026;2022-07-12T07:14:05;6.82;;;2.67;;
18387;SDS011;9320;50.256;19.026;2022-07-12T07:16:33;9.23;;;3.08;;
18387;SDS011;9320;50.256;19.026;2022-07-12T07:19:02;5.25;;;2.47;;
18387;SDS011;9320;50.256;19.026;2022-07-12T07:21:32;6.13;;;2.35;;
18387;SDS011;9320;50.256;19.026;2022-07-12T07:24:00;5.10;;;2.30;;
18387;SDS011;9320;50.256;19.026;2022-07-12T07:26:30;6.75;;;2.00;;
18387;SDS011;9320;50.256;19.026;2022-07-12T07:29:01;5.85;;;2.17;;
18387;SDS011;9320;50.256;19.026;2022-07-12T07:31:46;3.88;;;2.00;;
18387;SDS011;9320;50.256;19.026;2022-07-12T07:34:15;8.93;;;2.17;;
18387;SDS011;9320;50.256;19.026;2022-07-12T07:36:43;4.68;;;1.70;;
18387;SDS011;9320;50.256;19.026;2022-07-12T07:39:11;2.83;;;1.42;;
18387;SDS011;9320;50.256;19.026;2022-07-12T07:41:47;3.50;;;1.58;;
18387;SDS011;9320;50.256;19.026;2022-07-12T07:44:16;6.03;;;1.80;;
18387;SDS011;9320;50.256;19.026;2022-07-12T07:46:44;3.95;;;1.70;;
18387;SDS011;9320;50.256;19.026;2022-07-12T07:49:13;3.60;;;1.60;;
18387;SDS011;9320;50.256;19.026;2022-07-12T07:51:41;3.35;;;1.50;;
18387;SDS011;9320;50.256;19.026;2022-07-12T07:54:09;4.63;;;1.52;;
18387;SDS011;9320;50.256;19.026;2022-07-12T07:56:37;2.63;;;1.30;;
18387;SDS011;9320;50.256;19.026;2022-07-12T07:59:07;3.28;;;1.40;;
18387;SDS011;9320;50.256;19.026;2022-07-12T08:01:35;2.45;;;1.23;;
18387;SDS011;9320;50.256;19.026;2022-07-12T08:04:19;2.30;;;1.20;;
18387;SDS011;9320;50.256;19.026;2022-07-12T08:06:49;3.55;;;1.40;;
18387;SDS011;9320;50.256;19.026;2022-07-12T08:09:17;2.70;;;1.38;;
18387;SDS011;9320;50.256;19.026;2022-07-12T08:11:45;5.53;;;1.30;;
18387;SDS011;9320;50.256;19.026;2022-07-12T08:14:15;2.65;;;1.38;;
18387;SDS011;9320;50.256;19.026;2022-07-12T08:16:43;2.70;;;1.30;;
18387;SDS011;9320;50.256;19.026;2022-07-12T08:19:11;1.65;;;1.20;;
18387;SDS011;9320;50.256;19.026;2022-07-12T08:21:40;4.50;;;1.15;;
18387;SDS011;9320;50.256;19.026;2022-07-12T08:24:08;6.43;;;1.42;;
18387;SDS011;9320;50.256;19.026;2022-07-12T08:26:36;2.63;;;1.50;;
18387;SDS011;9320;50.256;19.026;2022-07-12T08:29:06;2.10;;;1.27;;
18387;SDS011;9320;50.256;19.026;2022-07-12T08:31:36;2.90;;;1.48;;
18387;SDS011;9320;50.256;19.026;2022-07-12T08:34:04;2.85;;;1.30;;
18387;SDS011;9320;50.256;19.026;2022-07-12T08:36:32;2.63;;;1.23;;
18387;SDS011;9320;50.256;19.026;2022-07-12T08:39:00;4.70;;;1.50;;
18387;SDS011;9320;50.256;19.026;2022-07-12T08:41:28;4.93;;;1.48;;
18387;SDS011;9320;50.256;19.026;2022-07-12T08:43:57;3.00;;;1.27;;
18387;SDS011;9320;50.256;19.026;2022-07-12T08:46:25;2.75;;;1.27;;
18387;SDS011;9320;50.256;19.026;2022-07-12T08:48:55;4.30;;;1.40;;
18387;SDS011;9320;50.256;19.026;2022-07-12T08:51:23;6.05;;;1.45;;
18387;SDS011;9320;50.256;19.026;2022-07-12T08:54:04;7.63;;;1.60;;
18387;SDS011;9320;50.256;19.026;2022-07-12T08:56:34;4.05;;;1.20;;
18387;SDS011;9320;50.256;19.026;2022-07-12T08:59:10;4.72;;;1.40;;
18387;SDS011;9320;50.256;19.026;2022-07-12T09:01:41;4.97;;;1.42;;
18387;SDS011;9320;50.256;19.026;2022-07-12T09:04:12;3.13;;;1.40;;
18387;SDS011;9320;50.256;19.026;2022-07-12T09:06:41;2.80;;;1.20;;
18387;SDS011;9320;50.256;19.026;2022-07-12T09:09:09;2.92;;;1.30;;
18387;SDS011;9320;50.256;19.026;2022-07-12T09:11:38;7.25;;;1.67;;
18387;SDS011;9320;50.256;19.026;2022-07-12T09:14:15;7.80;;;1.80;;
18387;SDS011;9320;50.256;19.026;2022-07-12T09:16:57;3.20;;;1.20;;
18387;SDS011;9320;50.256;19.026;2022-07-12T09:19:28;5.50;;;1.20;;
18387;SDS011;9320;50.256;19.026;2022-07-12T09:21:56;4.28;;;1.40;;
18387;SDS011;9320;50.256;19.026;2022-07-12T09:24:25;3.85;;;1.30;;
18387;SDS011;9320;50.256;19.026;2022-07-12T09:26:56;6.45;;;1.50;;
18387;SDS011;9320;50.256;19.026;2022-07-12T09:29:28;4.68;;;1.60;;
18387;SDS011;9320;50.256;19.026;2022-07-12T09:31:57;5.22;;;1.40;;
18387;SDS011;9320;50.256;19.026;2022-07-12T09:34:56;3.55;;;1.63;;
18387;SDS011;9320;50.256;19.026;2022-07-12T09:37:42;8.23;;;1.88;;
18387;SDS011;9320;50.256;19.026;2022-07-12T09:40:10;4.35;;;1.48;;
18387;SDS011;9320;50.256;19.026;2022-07-12T09:42:39;6.75;;;1.75;;
18387;SDS011;9320;50.256;19.026;2022-07-12T09:45:08;4.28;;;1.58;;
18387;SDS011;9320;50.256;19.026;2022-07-12T09:47:37;4.93;;;1.70;;
18387;SDS011;9320;50.256;19.026;2022-07-12T09:50:08;3.60;;;1.60;;
18387;SDS011;9320;50.256;19.026;2022-07-12T09:52:37;5.82;;;1.50;;
18387;SDS011;9320;50.256;19.026;2022-07-12T09:55:07;3.85;;;1.63;;
18387;SDS011;9320;50.256;19.026;2022-07-12T09:57:39;5.10;;;1.70;;
18387;SDS011;9320;50.256;19.026;2022-07-12T10:00:09;6.28;;;1.55;;
18387;SDS011;9320;50.256;19.026;2022-07-12T10:02:38;6.15;;;2.05;;
18387;SDS011;9320;50.256;19.026;2022-07-12T10:05:09;5.60;;;1.35;;
18387;SDS011;9320;50.256;19.026;2022-07-12T10:07:38;9.77;;;1.67;;
18387;SDS011;9320;50.256;19.026;2022-07-12T10:10:07;4.90;;;2.15;;
18387;SDS011;9320;50.256;19.026;2022-07-12T10:12:38;4.85;;;1.35;;
18387;SDS011;9320;50.256;19.026;2022-07-12T10:15:09;4.30;;;1.40;;
18387;SDS011;9320;50.256;19.026;2022-07-12T10:17:44;8.45;;;1.70;;
18387;SDS011;9320;50.256;19.026;2022-07-12T10:20:23;4.53;;;1.88;;
18387;SDS011;9320;50.256;19.026;2022-07-12T10:22:53;4.68;;;1.60;;
18387;SDS011;9320;50.256;19.026;2022-07-12T10:25:28;5.15;;;1.70;;
18387;SDS011;9320;50.256;19.026;2022-07-12T10:27:58;6.18;;;2.03;;
18387;SDS011;9320;50.256;19.026;2022-07-12T10:30:26;3.33;;;1.60;;
18387;SDS011;9320;50.256;19.026;2022-07-12T10:32:56;4.88;;;1.75;;
18387;SDS011;9320;50.256;19.026;2022-07-12T10:35:27;4.28;;;1.95;;
18387;SDS011;9320;50.256;19.026;2022-07-12T10:38:16;10.35;;;1.70;;
18387;SDS011;9320;50.256;19.026;2022-07-12T10:40:46;3.05;;;1.30;;
18387;SDS011;9320;50.256;19.026;2022-07-12T10:43:16;4.00;;;1.50;;
18387;SDS011;9320;50.256;19.026;2022-07-12T10:46:19;2.72;;;1.40;;
18387;SDS011;9320;50.256;19.026;2022-07-12T10:48:50;3.30;;;1.52;;
18387;SDS011;9320;50.256;19.026;2022-07-12T10:51:40;4.35;;;1.60;;
18387;SDS011;9320;50.256;19.026;2022-07-12T10:54:19;3.50;;;1.80;;
18387;SDS011;9320;50.256;19.026;2022-07-12T10:56:55;2.60;;;1.60;;
18387;SDS011;9320;50.256;19.026;2022-07-12T10:59:24;5.28;;;2.10;;
18387;SDS011;9320;50.256;19.026;2022-07-12T11:01:54;2.92;;;1.40;;
18387;SDS011;9320;50.256;19.026;2022-07-12T11:04:31;4.25;;;1.40;;
18387;SDS011;9320;50.256;19.026;2022-07-12T11:07:02;3.70;;;1.80;;
18387;SDS011;9320;50.256;19.026;2022-07-12T11:09:31;4.68;;;1.63;;
18387;SDS011;9320;50.256;19.026;2022-07-12T11:11:59;7.53;;;2.10;;
18387;SDS011;9320;50.256;19.026;2022-07-12T11:14:29;4.10;;;1.80;;
18387;SDS011;9320;50.256;19.026;2022-07-12T11:16:59;2.85;;;1.33;;
18387;SDS011;9320;50.256;19.026;2022-07-12T11:19:27;3.85;;;1.52;;
18387;SDS011;9320;50.256;19.026;2022-07-12T11:21:57;4.13;;;1.70;;
18387;SDS011;9320;50.256;19.026;2022-07-12T11:24:27;2.63;;;1.30;;
18387;SDS011;9320;50.256;19.026;2022-07-12T11:26:56;2.60;;;1.15;;
18387;SDS011;9320;50.256;19.026;2022-07-12T11:29:26;1.95;;;1.30;;
18387;SDS011;9320;50.256;19.026;2022-07-12T11:31:59;1.75;;;1.20;;
18387;SDS011;9320;50.256;19.026;2022-07-12T11:34:36;1.75;;;1.23;;
18387;SDS011;9320;50.256;19.026;2022-07-12T11:37:05;3.38;;;1.38;;
18387;SDS011;9320;50.256;19.026;2022-07-12T11:39:34;5.45;;;1.80;;
18387;SDS011;9320;50.256;19.026;2022-07-12T11:42:04;4.55;;;1.60;;
18387;SDS011;9320;50.256;19.026;2022-07-12T11:44:42;4.90;;;1.33;;
18387;SDS011;9320;50.256;19.026;2022-07-12T11:47:11;3.67;;;1.40;;
18387;SDS011;9320;50.256;19.026;2022-07-12T11:49:41;4.20;;;1.40;;
18387;SDS011;9320;50.256;19.026;2022-07-12T11:52:11;1.65;;;1.20;;
18387;SDS011;9320;50.256;19.026;2022-07-12T11:54:42;4.20;;;1.20;;
18387;SDS011;9320;50.256;19.026;2022-07-12T11:57:11;3.53;;;1.33;;
18387;SDS011;9320;50.256;19.026;2022-07-12T11:59:40;3.50;;;1.77;;
18387;SDS011;9320;50.256;19.026;2022-07-12T12:02:09;2.72;;;1.60;;
18387;SDS011;9320;50.256;19.026;2022-07-12T12:04:45;4.95;;;1.65;;
18387;SDS011;9320;50.256;19.026;2022-07-12T12:07:15;3.72;;;1.80;;
18387;SDS011;9320;50.256;19.026;2022-07-12T12:10:02;5.30;;;1.58;;
18387;SDS011;9320;50.256;19.026;2022-07-12T12:12:35;3.13;;;1.40;;
18387;SDS011;9320;50.256;19.026;2022-07-12T12:15:05;3.58;;;1.45;;
18387;SDS011;9320;50.256;19.026;2022-07-12T12:17:34;2.50;;;1.20;;
18387;SDS011;9320;50.256;19.026;2022-07-12T12:20:13;1.55;;;1.10;;
18387;SDS011;9320;50.256;19.026;2022-07-12T12:22:44;2.25;;;1.30;;
18387;SDS011;9320;50.256;19.026;2022-07-12T12:25:14;2.63;;;1.20;;
18387;SDS011;9320;50.256;19.026;2022-07-12T12:27:44;4.15;;;1.20;;
18387;SDS011;9320;50.256;19.026;2022-07-12T12:30:33;3.47;;;1.27;;
18387;SDS011;9320;50.256;19.026;2022-07-12T12:33:03;2.25;;;1.20;;
18387;SDS011;9320;50.256;19.026;2022-07-12T12:35:33;1.63;;;1.00;;
18387;SDS011;9320;50.256;19.026;2022-07-12T12:38:03;3.83;;;1.23;;
18387;SDS011;9320;50.256;19.026;2022-07-12T12:40:40;2.00;;;1.10;;
18387;SDS011;9320;50.256;19.026;2022-07-12T12:43:18;3.83;;;1.02;;
18387;SDS011;9320;50.256;19.026;2022-07-12T12:45:49;3.45;;;1.25;;
18387;SDS011;9320;50.256;19.026;2022-07-12T12:48:19;2.65;;;1.20;;
18387;SDS011;9320;50.256;19.026;2022-07-12T12:50:49;4.72;;;1.17;;
18387;SDS011;9320;50.256;19.026;2022-07-12T12:53:18;7.15;;;1.63;;
18387;SDS011;9320;50.256;19.026;2022-07-12T12:55:50;7.65;;;1.30;;
18387;SDS011;9320;50.256;19.026;2022-07-12T12:58:20;9.43;;;1.42;;
18387;SDS011;9320;50.256;19.026;2022-07-12T13:00:50;3.97;;;1.30;;
18387;SDS011;9320;50.256;19.026;2022-07-12T13:03:20;4.55;;;1.13;;
18387;SDS011;9320;50.256;19.026;2022-07-12T13:05:50;2.42;;;1.10;;
18387;SDS011;9320;50.256;19.026;2022-07-12T13:08:19;4.97;;;1.30;;
18387;SDS011;9320;50.256;19.026;2022-07-12T13:10:49;4.32;;;1.05;;
18387;SDS011;9320;50.256;19.026;2022-07-12T13:13:38;1.90;;;1.15;;
18387;SDS011;9320;50.256;19.026;2022-07-12T13:16:07;1.90;;;1.13;;
18387;SDS011;9320;50.256;19.026;2022-07-12T13:18:35;2.50;;;1.00;;
18387;SDS011;9320;50.256;19.026;2022-07-12T13:21:04;3.88;;;1.20;;
18387;SDS011;9320;50.256;19.026;2022-07-12T13:23:32;1.98;;;1.00;;
18387;SDS011;9320;50.256;19.026;2022-07-12T13:26:02;1.75;;;1.20;;
18387;SDS011;9320;50.256;19.026;2022-07-12T13:28:30;2.55;;;1.10;;
18387;SDS011;9320;50.256;19.026;2022-07-12T13:30:59;2.72;;;1.10;;
18387;SDS011;9320;50.256;19.026;2022-07-12T13:33:28;2.45;;;0.90;;
18387;SDS011;9320;50.256;19.026;2022-07-12T13:35:56;1.63;;;1.10;;
18387;SDS011;9320;50.256;19.026;2022-07-12T13:38:25;4.15;;;1.48;;
18387;SDS011;9320;50.256;19.026;2022-07-12T13:40:53;2.50;;;1.10;;
18387;SDS011;9320;50.256;19.026;2022-07-12T13:43:23;4.45;;;1.50;;
18387;SDS011;9320;50.256;19.026;2022-07-12T13:45:51;2.08;;;1.10;;
18387;SDS011;9320;50.256;19.026;2022-07-12T13:48:19;3.05;;;1.33;;
18387;SDS011;9320;50.256;19.026;2022-07-12T13:50:48;3.17;;;1.30;;
18387;SDS011;9320;50.256;19.026;2022-07-12T13:53:36;1.52;;;1.20;;
18387;SDS011;9320;50.256;19.026;2022-07-12T13:56:04;3.72;;;1.30;;
18387;SDS011;9320;50.256;19.026;2022-07-12T13:58:34;4.60;;;1.30;;
18387;SDS011;9320;50.256;19.026;2022-07-12T14:01:03;3.05;;;1.30;;
18387;SDS011;9320;50.256;19.026;2022-07-12T14:03:31;2.13;;;1.20;;
18387;SDS011;9320;50.256;19.026;2022-07-12T14:05:59;4.93;;;1.30;;
18387;SDS011;9320;50.256;19.026;2022-07-12T14:08:27;2.03;;;1.00;;
18387;SDS011;9320;50.256;19.026;2022-07-12T14:10:55;2.78;;;1.02;;
18387;SDS011;9320;50.256;19.026;2022-07-12T14:13:24;4.07;;;1.05;;
18387;SDS011;9320;50.256;19.026;2022-07-12T14:15:53;1.30;;;1.00;;
18387;SDS011;9320;50.256;19.026;2022-07-12T14:18:23;1.40;;;0.93;;
18387;SDS011;9320;50.256;19.026;2022-07-12T14:20:51;2.72;;;1.10;;
18387;SDS011;9320;50.256;19.026;2022-07-12T14:23:19;2.40;;;1.00;;
18387;SDS011;9320;50.256;19.026;2022-07-12T14:25:47;3.38;;;1.10;;
18387;SDS011;9320;50.256;19.026;2022-07-12T14:28:15;2.28;;;1.05;;
18387;SDS011;9320;50.256;19.026;2022-07-12T14:30:44;4.90;;;1.10;;
18387;SDS011;9320;50.256;19.026;2022-07-12T14:33:13;1.95;;;0.93;;
18387;SDS011;9320;50.256;19.026;2022-07-12T14:35:42;2.00;;;0.90;;
18387;SDS011;9320;50.256;19.026;2022-07-12T14:38:10;2.47;;;0.80;;
18387;SDS011;9320;50.256;19.026;2022-07-12T14:40:38;2.13;;;1.00;;
18387;SDS011;9320;50.256;19.026;2022-07-12T14:43:06;1.23;;;1.00;;
18387;SDS011;9320;50.256;19.026;2022-07-12T14:45:35;2.35;;;1.55;;
18387;SDS011;9320;50.256;19.026;2022-07-12T14:48:03;2.38;;;1.23;;
18387;SDS011;9320;50.256;19.026;2022-07-12T14:50:33;2.35;;;1.20;;
18387;SDS011;9320;50.256;19.026;2022-07-12T14:53:01;2.90;;;1.00;;
18387;SDS011;9320;50.256;19.026;2022-07-12T14:55:29;2.17;;;1.10;;
18387;SDS011;9320;50.256;19.026;2022-07-12T14:57:58;5.80;;;1.30;;